Time;durP1;ratioP1;P1;durP2;ratioP2;P2;SDS_P1;SDS_P2;PMS_P1;PMS_P2;Temp;Humidity;BMP_temperature;BMP_pressure;BME280_temperature;BME280_humidity;BME280_pressure;Samples;Min_cycle;Max_cycle;Signal;HPM_P1;HPM_P2
2023/09/21 00:01:21;;;;;;;2.90;1.20;;;;;;;11.95;86.47;95775.51;106691;1276;22992;-82
2023/09/21 00:03:49;;;;;;;5.20;1.10;;;;;;;12.02;86.55;95772.20;106776;1276;24292;-83
2023/09/21 00:06:18;;;;;;;5.40;1.20;;;;;;;12.04;86.55;95766.86;106711;1276;25432;-86
2023/09/21 00:08:48;;;;;;;1.10;1.00;;;;;;;11.98;84.49;95772.81;106655;1276;22523;-83
2023/09/21 00:11:18;;;;;;;3.00;1.20;;;;;;;11.80;84.40;95770.16;106800;1276;24278;-83
2023/09/21 00:13:46;;;;;;;3.90;1.20;;;;;;;11.67;85.09;95766.89;106686;1276;22534;-83
2023/09/21 00:16:16;;;;;;;2.60;1.30;;;;;;;11.62;85.50;95764.34;106740;1276;25535;-83
2023/09/21 00:18:46;;;;;;;1.30;1.10;;;;;;;11.67;86.12;95765.48;106623;1276;25924;-83
2023/09/21 00:21:15;;;;;;;1.40;1.10;;;;;;;11.73;85.96;95770.30;106993;1276;22644;-84
2023/09/21 00:23:44;;;;;;;2.50;1.40;;;;;;;11.72;85.35;95767.31;106848;1276;22556;-83
2023/09/21 00:26:14;;;;;;;2.20;1.10;;;;;;;11.66;85.51;95762.68;106943;1276;25399;-83
2023/09/21 00:28:46;;;;;;;5.50;1.30;;;;;;;11.63;85.74;95756.77;106857;1276;24365;-84
2023/09/21 00:31:15;;;;;;;4.10;1.10;;;;;;;11.65;86.65;95759.88;106986;1276;24889;-83
2023/09/21 00:33:43;;;;;;;2.50;0.90;;;;;;;11.63;86.78;95754.83;106826;1276;22660;-83
2023/09/21 00:36:16;;;;;;;2.20;1.10;;;;;;;11.59;86.89;95757.53;106945;1271;22651;-83
2023/09/21 00:38:46;;;;;;;2.20;1.10;;;;;;;11.54;86.94;95756.77;106629;1276;278221;-85
2023/09/21 00:41:17;;;;;;;2.00;1.10;;;;;;;11.48;86.72;95755.64;106949;1276;24270;-83
2023/09/21 00:43:46;;;;;;;3.50;1.00;;;;;;;11.41;86.63;95755.59;106711;1276;22652;-83
2023/09/21 00:46:14;;;;;;;5.20;1.30;;;;;;;11.29;86.57;95754.60;106930;1276;25451;-84
2023/09/21 00:48:43;;;;;;;6.10;1.30;;;;;;;11.18;86.99;95762.71;106850;1276;24289;-84
2023/09/21 00:51:14;;;;;;;3.20;1.10;;;;;;;11.15;87.23;95761.36;106916;1276;24395;-84
2023/09/21 00:53:44;;;;;;;1.70;1.00;;;;;;;11.12;88.02;95757.55;106756;1276;25631;-84
2023/09/21 00:56:18;;;;;;;1.90;1.20;;;;;;;11.10;87.84;95755.65;106748;1274;25273;-83
2023/09/21 00:58:53;;;;;;;3.80;0.90;;;;;;;11.09;87.78;95751.45;106692;1276;22532;-84
2023/09/21 01:01:27;;;;;;;1.60;1.10;;;;;;;11.08;88.09;95742.30;106678;1276;25462;-84
2023/09/21 01:03:59;;;;;;;3.50;1.10;;;;;;;11.10;88.65;95748.44;106742;1276;25287;-83
2023/09/21 01:06:28;;;;;;;1.50;1.00;;;;;;;11.13;88.01;95743.81;106664;1276;25329;-84
2023/09/21 01:08:56;;;;;;;2.20;1.20;;;;;;;11.15;87.25;95746.40;106662;1276;24749;-85
2023/09/21 01:11:25;;;;;;;1.20;1.10;;;;;;;11.13;87.13;95745.92;106654;1276;22657;-84
2023/09/21 01:13:54;;;;;;;1.10;1.00;;;;;;;11.18;87.57;95740.70;106648;1276;22624;-84
2023/09/21 01:16:24;;;;;;;6.20;1.10;;;;;;;11.25;87.35;95739.52;106720;1276;22523;-84
2023/09/21 01:18:53;;;;;;;1.50;0.90;;;;;;;11.23;86.27;95739.02;106706;1276;23889;-84
2023/09/21 01:21:34;;;;;;;2.10;1.00;;;;;;;11.15;85.88;95741.83;106648;1276;24268;-85
2023/09/21 01:24:05;;;;;;;2.70;1.10;;;;;;;11.12;86.63;95742.77;106423;1276;25465;-86
2023/09/21 01:26:33;;;;;;;1.30;0.90;;;;;;;11.10;87.39;95746.31;106431;1276;24286;-85
2023/09/21 01:29:02;;;;;;;5.70;1.00;;;;;;;11.19;87.87;95739.64;106635;1276;22534;-85
2023/09/21 01:31:30;;;;;;;4.10;1.00;;;;;;;11.27;87.39;95735.61;106708;1276;23537;-85
2023/09/21 01:33:59;;;;;;;1.90;1.00;;;;;;;11.35;87.40;95735.27;106446;1276;26755;-85
2023/09/21 01:36:28;;;;;;;1.10;0.90;;;;;;;11.42;87.04;95736.38;106700;1276;24262;-85
2023/09/21 01:38:58;;;;;;;2.40;1.10;;;;;;;11.43;86.23;95731.95;106581;1276;24227;-85
2023/09/21 01:41:27;;;;;;;1.30;0.90;;;;;;;11.39;86.48;95731.34;106661;1276;22656;-85
2023/09/21 01:43:55;;;;;;;3.20;1.00;;;;;;;11.26;85.12;95730.70;106402;1276;22534;-85
2023/09/21 01:46:24;;;;;;;1.10;0.90;;;;;;;11.13;85.59;95730.23;106741;1276;22526;-86
2023/09/21 01:48:53;;;;;;;1.30;0.70;;;;;;;11.13;85.98;95725.14;106714;1276;24304;-85
2023/09/21 01:51:22;;;;;;;2.80;1.00;;;;;;;11.11;85.63;95724.29;106569;1276;24286;-85
2023/09/21 01:53:53;;;;;;;2.70;1.00;;;;;;;11.03;85.74;95724.78;106706;1270;24324;-86
2023/09/21 01:56:22;;;;;;;1.10;1.00;;;;;;;10.99;85.77;95720.82;106596;1276;22639;-86
2023/09/21 01:58:50;;;;;;;1.10;0.90;;;;;;;10.99;86.54;95719.07;106591;1276;25417;-85
2023/09/21 02:01:19;;;;;;;6.50;1.40;;;;;;;10.99;86.64;95723.81;106611;1276;22647;-85
2023/09/21 02:03:47;;;;;;;3.00;1.00;;;;;;;10.94;86.46;95721.08;106667;1260;22514;-86
2023/09/21 02:06:16;;;;;;;1.50;1.10;;;;;;;10.96;86.79;95724.39;106686;1276;22927;-86
2023/09/21 02:08:44;;;;;;;1.80;0.90;;;;;;;10.97;85.99;95722.08;106563;1270;22545;-86
2023/09/21 02:11:13;;;;;;;2.70;1.20;;;;;;;10.92;86.17;95720.77;107025;1276;22807;-86
2023/09/21 02:13:42;;;;;;;1.10;0.90;;;;;;;10.87;86.25;95715.41;106867;1276;25383;-87
2023/09/21 02:16:11;;;;;;;1.60;1.00;;;;;;;10.88;86.59;95716.61;106424;1276;25300;-86
2023/09/21 02:18:39;;;;;;;1.10;0.90;;;;;;;11.00;87.39;95717.27;106677;1276;22541;-86
2023/09/21 02:21:11;;;;;;;2.70;1.10;;;;;;;11.06;86.62;95715.56;106702;1276;23896;-85
2023/09/21 02:23:40;;;;;;;1.80;1.00;;;;;;;10.99;85.70;95716.95;106677;1276;22532;-86
2023/09/21 02:26:09;;;;;;;2.50;1.10;;;;;;;10.98;86.45;95714.84;106687;1276;24075;-89
2023/09/21 02:28:38;;;;;;;2.50;1.30;;;;;;;10.95;86.94;95712.77;106786;1276;23967;-85
2023/09/21 02:31:12;;;;;;;6.90;1.40;;;;;;;10.85;85.96;95709.64;106628;1276;22526;-85
2023/09/21 02:33:42;;;;;;;6.40;1.20;;;;;;;10.80;87.15;95710.95;106772;1276;25445;-85
2023/09/21 02:36:14;;;;;;;3.60;1.50;;;;;;;10.82;87.69;95712.16;106747;1276;24249;-86
2023/09/21 02:38:43;;;;;;;5.10;4.20;;;;;;;10.81;87.10;95714.80;106588;1276;22542;-86
2023/09/21 02:41:12;;;;;;;5.60;4.60;;;;;;;10.75;86.09;95714.20;106517;1276;24210;-88
2023/09/21 02:43:41;;;;;;;5.80;3.40;;;;;;;10.68;85.76;95714.15;106700;1276;23916;-86
2023/09/21 02:46:09;;;;;;;6.70;3.80;;;;;;;10.58;86.06;95717.30;106667;1276;25316;-86
2023/09/21 02:48:38;;;;;;;3.50;2.60;;;;;;;10.54;86.59;95712.98;106704;1276;22535;-86
2023/09/21 02:51:07;;;;;;;5.20;2.40;;;;;;;10.48;86.60;95716.95;106721;1276;24322;-85
2023/09/21 02:53:36;;;;;;;4.00;2.30;;;;;;;10.46;87.26;95719.97;106635;1276;25295;-85
2023/09/21 02:56:08;;;;;;;5.30;2.20;;;;;;;10.49;88.02;95715.69;106705;1276;22535;-86
2023/09/21 02:58:36;;;;;;;5.70;2.70;;;;;;;10.48;87.84;95715.53;106637;1276;25417;-84
2023/09/21 03:01:05;;;;;;;3.10;2.60;;;;;;;10.38;87.88;95713.23;106663;1276;22945;-85
2023/09/21 03:03:34;;;;;;;5.30;2.30;;;;;;;10.33;88.13;95717.35;106731;1276;22759;-84
2023/09/21 03:06:03;;;;;;;2.50;1.20;;;;;;;10.31;87.71;95712.82;106644;1276;24356;-84
2023/09/21 03:08:32;;;;;;;1.20;1.10;;;;;;;10.35;88.01;95715.22;106688;1276;22553;-84
2023/09/21 03:11:00;;;;;;;2.30;1.10;;;;;;;10.38;88.84;95720.80;106599;1276;22655;-85
2023/09/21 03:13:30;;;;;;;1.90;1.20;;;;;;;10.39;89.32;95722.02;106707;1276;22537;-85
2023/09/21 03:15:58;;;;;;;1.30;0.90;;;;;;;10.39;89.37;95722.71;106677;1276;24396;-85
2023/09/21 03:18:29;;;;;;;1.20;1.10;;;;;;;10.39;89.25;95723.06;106652;1276;22802;-84
2023/09/21 03:20:57;;;;;;;1.50;0.90;;;;;;;10.43;89.01;95726.00;106618;1276;22538;-84
2023/09/21 03:23:28;;;;;;;2.70;1.00;;;;;;;10.50;89.32;95722.55;106760;1276;25436;-85
2023/09/21 03:25:57;;;;;;;1.60;1.10;;;;;;;10.49;89.69;95724.67;106656;1276;23010;-85
2023/09/21 03:28:26;;;;;;;2.10;0.90;;;;;;;10.49;89.35;95723.80;106717;1276;22595;-84
2023/09/21 03:30:57;;;;;;;2.00;1.10;;;;;;;10.51;88.97;95720.78;106709;1276;24497;-84
2023/09/21 03:33:26;;;;;;;3.20;1.10;;;;;;;10.55;89.01;95714.89;106728;1276;24280;-85
2023/09/21 03:35:56;;;;;;;6.30;1.20;;;;;;;10.58;88.84;95709.73;106751;1276;22526;-84
2023/09/21 03:38:24;;;;;;;4.20;2.20;;;;;;;10.60;88.83;95710.76;106736;1276;22534;-85
2023/09/21 03:40:56;;;;;;;5.50;1.50;;;;;;;10.66;88.55;95710.15;106762;1276;24264;-85
2023/09/21 03:43:25;;;;;;;1.80;1.20;;;;;;;10.68;87.81;95707.64;106946;1276;22536;-85
2023/09/21 03:45:54;;;;;;;4.20;1.20;;;;;;;10.61;86.96;95702.14;106803;1276;24243;-85
2023/09/21 03:48:22;;;;;;;4.80;1.10;;;;;;;10.61;87.55;95698.42;106744;1276;26520;-85
2023/09/21 03:50:52;;;;;;;1.00;1.00;;;;;;;10.65;87.57;95701.52;106586;1276;22532;-85
2023/09/21 03:53:20;;;;;;;2.80;1.20;;;;;;;10.67;88.02;95700.08;106718;1276;22551;-85
2023/09/21 03:55:49;;;;;;;2.50;1.00;;;;;;;10.73;87.88;95700.34;106719;1276;22767;-85
2023/09/21 03:58:19;;;;;;;4.20;1.30;;;;;;;10.66;88.00;95698.01;106703;1276;24210;-85
2023/09/21 04:00:48;;;;;;;6.20;0.90;;;;;;;10.59;87.82;95696.17;106713;1276;24085;-85
2023/09/21 04:03:17;;;;;;;3.40;1.00;;;;;;;10.53;87.95;95697.16;106718;1276;25476;-85
2023/09/21 04:05:54;;;;;;;3.40;1.10;;;;;;;10.52;87.80;95696.48;106671;1276;22536;-85
2023/09/21 04:08:22;;;;;;;0.70;0.70;;;;;;;10.54;87.74;95698.03;106795;1276;24892;-84
2023/09/21 04:10:50;;;;;;;1.80;0.80;;;;;;;10.57;87.97;95692.52;106655;1276;24297;-85
2023/09/21 04:13:18;;;;;;;4.40;1.00;;;;;;;10.51;87.71;95694.55;106740;1276;25587;-84
2023/09/21 04:15:46;;;;;;;1.70;1.10;;;;;;;10.50;88.62;95695.45;106649;1276;24274;-85
2023/09/21 04:18:15;;;;;;;1.50;0.90;;;;;;;10.51;89.01;95697.73;106693;1253;25683;-84
2023/09/21 04:20:44;;;;;;;1.80;1.00;;;;;;;10.46;88.14;95694.84;106711;1276;25246;-84
2023/09/21 04:23:13;;;;;;;2.70;1.20;;;;;;;10.41;88.65;95696.14;106757;1276;25364;-84
2023/09/21 04:25:45;;;;;;;8.70;1.40;;;;;;;10.37;88.54;95693.02;106674;1276;22796;-84
2023/09/21 04:28:14;;;;;;;3.00;1.00;;;;;;;10.38;88.60;95688.09;106680;1276;22810;-84
2023/09/21 04:30:42;;;;;;;1.20;0.90;;;;;;;10.47;88.71;95686.36;106559;1276;24242;-84
2023/09/21 04:33:10;;;;;;;2.80;1.20;;;;;;;10.52;88.73;95679.59;106640;1276;22522;-84
2023/09/21 04:35:39;;;;;;;2.20;1.10;;;;;;;10.53;88.55;95679.93;106709;1276;25470;-85
2023/09/21 04:38:08;;;;;;;0.70;0.70;;;;;;;10.52;88.13;95680.11;106642;1276;24209;-84
2023/09/21 04:40:36;;;;;;;1.40;1.30;;;;;;;10.47;87.49;95683.55;106624;1276;22533;-84
2023/09/21 04:43:04;;;;;;;2.00;1.30;;;;;;;10.46;88.04;95679.51;106705;1276;22549;-84
2023/09/21 04:45:33;;;;;;;1.50;1.30;;;;;;;10.49;88.21;95680.70;106616;1263;24239;-84
2023/09/21 04:48:04;;;;;;;3.70;1.30;;;;;;;10.52;88.32;95679.77;106817;1276;24283;-87
2023/09/21 04:50:36;;;;;;;1.30;1.20;;;;;;;10.53;88.20;95681.50;107057;1276;25252;-87
2023/09/21 04:53:05;;;;;;;1.40;1.20;;;;;;;10.55;88.27;95680.42;106800;1276;24228;-87
2023/09/21 04:55:36;;;;;;;4.40;1.40;;;;;;;10.57;88.98;95679.86;106681;1276;22632;-85
2023/09/21 04:58:05;;;;;;;1.30;1.10;;;;;;;10.60;88.92;95676.81;106865;1276;24235;-90
2023/09/21 05:00:35;;;;;;;1.80;0.90;;;;;;;10.65;89.14;95676.55;107874;1254;22653;-88
2023/09/21 05:03:11;;;;;;;1.60;1.20;;;;;;;10.72;89.03;95672.38;107534;1276;24325;-89
2023/09/21 05:05:49;;;;;;;;;;;;;;;;;;;;;
2023/09/21 05:08:20;;;;;;;1.10;1.00;;;;;;;10.78;88.90;95668.40;107986;1276;22623;-83
2023/09/21 05:10:49;;;;;;;2.00;1.00;;;;;;;10.81;89.57;95664.99;107780;1276;22481;-87
2023/09/21 05:13:19;;;;;;;2.40;1.30;;;;;;;10.89;89.80;95666.78;107665;1276;23142;-86
2023/09/21 05:15:48;;;;;;;2.30;1.30;;;;;;;10.98;89.83;95665.74;107489;1276;24248;-87
2023/09/21 05:18:16;;;;;;;3.80;1.20;;;;;;;11.09;90.73;95666.40;107619;1276;22535;-84
2023/09/21 05:20:45;;;;;;;4.70;1.50;;;;;;;11.19;90.16;95662.16;107877;1276;22584;-85
2023/09/21 05:23:14;;;;;;;2.20;1.60;;;;;;;11.31;89.98;95662.27;107830;1276;24286;-82
2023/09/21 05:25:42;;;;;;;1.90;1.70;;;;;;;11.39;89.32;95660.17;107732;1276;22546;-83
2023/09/21 05:28:11;;;;;;;2.50;2.00;;;;;;;11.47;89.49;95659.31;107657;1276;22531;-82
2023/09/21 05:30:39;;;;;;;3.20;1.50;;;;;;;11.64;89.96;95658.75;107663;1276;22534;-84
2023/09/21 05:33:07;;;;;;;3.30;1.60;;;;;;;11.82;89.74;95651.33;107689;1276;22580;-83
2023/09/21 05:35:36;;;;;;;5.20;1.40;;;;;;;12.00;89.58;95651.82;107726;1267;22498;-85
2023/09/21 05:38:06;;;;;;;2.30;1.40;;;;;;;12.13;89.25;95645.54;107661;1276;22902;-85
2023/09/21 05:40:35;;;;;;;2.90;1.40;;;;;;;12.29;89.04;95645.30;107815;1276;22718;-84
2023/09/21 05:43:03;;;;;;;1.70;1.30;;;;;;;12.43;88.71;95641.80;107668;1276;22493;-87
2023/09/21 05:45:31;;;;;;;2.30;1.40;;;;;;;12.58;88.26;95644.78;107738;1273;22538;-88
2023/09/21 05:47:59;;;;;;;1.70;1.60;;;;;;;12.75;88.39;95641.87;107703;1276;22577;-84
2023/09/21 05:50:29;;;;;;;1.40;1.30;;;;;;;12.92;87.95;95640.00;107714;1270;22720;-88
2023/09/21 05:52:59;;;;;;;3.60;1.20;;;;;;;13.02;87.05;95638.48;107362;1275;22595;-88
2023/09/21 05:55:28;;;;;;;1.50;1.20;;;;;;;13.08;86.44;95637.60;107254;1276;22540;-86
2023/09/21 05:57:56;;;;;;;2.30;1.20;;;;;;;13.19;86.82;95632.70;107502;1276;25305;-84
2023/09/21 06:00:25;;;;;;;2.90;1.40;;;;;;;13.32;86.31;95633.80;107507;1276;25959;-86
2023/09/21 06:02:54;;;;;;;1.70;1.30;;;;;;;13.37;85.79;95630.98;107105;1276;25247;-85
2023/09/21 06:05:22;;;;;;;4.30;1.50;;;;;;;13.45;85.59;95628.28;106826;1276;25432;-85
2023/09/21 06:07:51;;;;;;;1.60;1.10;;;;;;;13.59;85.97;95624.01;106856;1276;22525;-84
2023/09/21 06:10:20;;;;;;;1.80;1.30;;;;;;;13.71;85.91;95622.73;107222;1276;24073;-87
2023/09/21 06:12:50;;;;;;;1.50;1.20;;;;;;;13.81;85.99;95625.61;107305;1276;25423;-81
2023/09/21 06:15:18;;;;;;;3.30;1.80;;;;;;;13.95;85.99;95622.73;107137;1260;23510;-81
2023/09/21 06:17:47;;;;;;;4.30;1.60;;;;;;;14.09;85.94;95623.00;107245;1276;25357;-78
2023/09/21 06:20:15;;;;;;;3.00;1.60;;;;;;;14.21;85.68;95623.48;107216;1276;25401;-80
2023/09/21 06:22:43;;;;;;;2.50;1.40;;;;;;;14.33;85.45;95621.33;107304;1276;22596;-79
2023/09/21 06:25:12;;;;;;;3.60;1.70;;;;;;;14.43;85.11;95624.00;107233;1276;22601;-79
2023/09/21 06:27:41;;;;;;;2.20;1.50;;;;;;;14.55;84.95;95619.56;107413;1275;22660;-80
2023/09/21 06:30:11;;;;;;;8.30;1.90;;;;;;;14.65;84.64;95622.74;107321;1276;24519;-79
2023/09/21 06:32:40;;;;;;;2.60;1.60;;;;;;;14.75;84.52;95623.52;107166;1276;25355;-82
2023/09/21 06:35:08;;;;;;;3.30;1.40;;;;;;;14.86;84.58;95626.84;107149;1276;22623;-81
2023/09/21 06:37:37;;;;;;;1.70;1.40;;;;;;;14.98;84.58;95623.38;106940;1276;24756;-84
2023/09/21 06:40:06;;;;;;;1.70;1.40;;;;;;;15.11;84.49;95621.70;106971;1276;24195;-81
2023/09/21 06:42:34;;;;;;;3.40;1.40;;;;;;;15.24;84.26;95623.70;107272;1276;25238;-80
2023/09/21 06:45:03;;;;;;;3.00;1.30;;;;;;;15.38;83.49;95621.27;107542;1276;22531;-83
2023/09/21 06:47:33;;;;;;;1.60;1.20;;;;;;;15.52;83.44;95614.33;107273;1276;25431;-82
2023/09/21 06:50:03;;;;;;;2.10;1.30;;;;;;;15.69;83.40;95612.84;107237;1276;22527;-80
2023/09/21 06:52:31;;;;;;;3.50;1.30;;;;;;;15.82;82.33;95606.86;106842;1276;22657;-80
2023/09/21 06:55:00;;;;;;;5.70;1.30;;;;;;;15.95;82.61;95604.02;107484;1276;22596;-81
2023/09/21 06:59:38;;;;;;;2.10;1.50;;;;;;;16.26;82.44;95605.47;104356;1305;545142;-78
2023/09/21 07:02:07;;;;;;;1.70;1.30;;;;;;;16.40;81.52;95602.56;107540;1287;22541;-80
2023/09/21 07:04:36;;;;;;;1.80;1.30;;;;;;;16.53;80.84;95603.65;106325;1287;25348;-79
2023/09/21 07:07:07;;;;;;;2.10;1.20;;;;;;;16.60;79.70;95603.30;106519;1287;23266;-80
2023/09/21 07:09:37;;;;;;;3.30;1.10;;;;;;;16.71;79.01;95602.17;107022;1287;23903;-79
2023/09/21 07:12:06;;;;;;;2.60;1.30;;;;;;;16.81;77.99;95599.63;106401;1285;350867;-80
2023/09/21 07:14:36;;;;;;;6.50;2.00;;;;;;;16.86;77.35;95598.35;106811;1285;24399;-79
2023/09/21 07:17:05;;;;;;;2.40;1.50;;;;;;;16.99;78.02;95593.54;106671;1285;24473;-80
2023/09/21 07:19:37;;;;;;;1.80;1.70;;;;;;;17.09;77.44;95588.64;106647;1285;25484;-82
2023/09/21 07:22:05;;;;;;;2.60;1.90;;;;;;;17.16;76.10;95589.02;106534;1285;22669;-79
2023/09/21 07:24:33;;;;;;;5.20;2.10;;;;;;;17.25;76.35;95591.48;106423;1285;22532;-76
2023/09/21 07:27:02;;;;;;;3.50;1.70;;;;;;;17.32;75.71;95590.81;106580;1270;24234;-78
2023/09/21 07:29:33;;;;;;;2.70;1.80;;;;;;;17.42;75.83;95593.75;106263;1285;25406;-79
2023/09/21 07:32:01;;;;;;;2.40;1.60;;;;;;;17.52;73.90;95592.41;106020;1285;22653;-78
2023/09/21 07:34:30;;;;;;;2.80;1.90;;;;;;;17.59;74.16;95598.48;106477;1285;22582;-78
2023/09/21 07:36:58;;;;;;;6.30;1.90;;;;;;;17.66;73.94;95597.98;106355;1278;22536;-79
2023/09/21 07:39:28;;;;;;;2.30;1.80;;;;;;;17.70;73.05;95597.41;106256;1282;25351;-79
2023/09/21 07:41:56;;;;;;;2.80;1.80;;;;;;;17.76;72.49;95595.55;106223;1282;22649;-80
2023/09/21 07:44:25;;;;;;;2.20;1.50;;;;;;;17.86;73.16;95589.23;106698;1282;22773;-79
2023/09/21 07:46:53;;;;;;;2.40;1.70;;;;;;;17.98;72.51;95590.45;106501;1282;24399;-80
2023/09/21 07:49:21;;;;;;;3.40;2.10;;;;;;;18.03;71.00;95591.27;106269;1281;22566;-79
2023/09/21 07:51:49;;;;;;;2.60;1.60;;;;;;;18.09;71.26;95584.59;106276;1281;22533;-78
2023/09/21 07:54:18;;;;;;;4.00;1.80;;;;;;;18.17;70.72;95582.62;106315;1280;22878;-80
2023/09/21 07:56:46;;;;;;;1.90;1.70;;;;;;;18.26;70.37;95580.23;106274;1281;25414;-78
2023/09/21 07:59:15;;;;;;;2.20;1.70;;;;;;;18.30;69.77;95575.90;106681;1281;22526;-80
2023/09/21 08:01:44;;;;;;;3.90;1.70;;;;;;;18.35;69.42;95578.00;106894;1276;22639;-80
2023/09/21 08:04:12;;;;;;;3.20;1.40;;;;;;;18.44;70.93;95574.31;107267;1269;22535;-80
2023/09/21 08:06:41;;;;;;;2.90;1.70;;;;;;;18.59;71.13;95576.95;107007;1276;24396;-77
2023/09/21 08:09:09;;;;;;;2.60;1.70;;;;;;;18.71;71.13;95572.79;106696;1276;24227;-80
2023/09/21 08:11:57;;;;;;;3.80;1.70;;;;;;;18.86;71.54;95570.27;106750;1276;22527;-84
2023/09/21 08:14:26;;;;;;;2.00;1.80;;;;;;;19.01;70.84;95568.61;106857;1276;23452;-84
2023/09/21 08:16:55;;;;;;;7.00;1.50;;;;;;;19.09;69.84;95566.06;106788;1276;22569;-81
2023/09/21 08:19:23;;;;;;;4.00;1.70;;;;;;;19.15;69.25;95563.77;107139;1276;25357;-80
2023/09/21 08:21:52;;;;;;;6.30;1.40;;;;;;;19.24;69.68;95562.05;106852;1276;25531;-79
2023/09/21 08:24:20;;;;;;;5.80;1.70;;;;;;;19.35;68.18;95560.21;107443;1273;22530;-81
2023/09/21 08:26:49;;;;;;;1.90;1.50;;;;;;;19.52;69.04;95554.50;107064;1276;25195;-82
2023/09/21 08:29:19;;;;;;;4.00;1.20;;;;;;;19.68;68.54;95543.81;106958;1276;24206;-80
2023/09/21 08:31:50;;;;;;;1.50;1.40;;;;;;;19.83;67.40;95544.41;106777;1276;22576;-81
2023/09/21 08:34:19;;;;;;;2.80;1.60;;;;;;;19.93;67.03;95544.39;106933;1276;22608;-83
2023/09/21 08:36:47;;;;;;;2.90;1.80;;;;;;;20.05;66.28;95547.11;107151;1276;24271;-84
2023/09/21 08:39:16;;;;;;;3.20;1.50;;;;;;;20.23;66.99;95546.95;107497;1276;22544;-79
2023/09/21 08:41:49;;;;;;;3.60;1.80;;;;;;;20.37;65.30;95544.08;107066;1276;25522;-80
2023/09/21 08:44:18;;;;;;;1.60;1.50;;;;;;;20.39;63.29;95543.23;107022;1276;22564;-81
2023/09/21 08:46:48;;;;;;;1.80;1.50;;;;;;;20.40;64.38;95542.27;106927;1259;25770;-83
2023/09/21 08:49:21;;;;;;;1.70;1.60;;;;;;;20.45;64.19;95537.66;107006;1276;25300;-81
2023/09/21 08:51:54;;;;;;;1.80;1.50;;;;;;;20.59;65.19;95537.90;106882;1276;24217;-82
2023/09/21 12:12:55;;;;;;;3.20;2.20;;;;;;;28.75;47.41;95370.53;101349;1303;22766;-77
2023/09/21 12:16:02;;;;;;;3.20;2.00;;;;;;;28.75;47.17;95372.30;104827;1295;544972;-79
2023/09/21 12:18:30;;;;;;;3.90;1.90;;;;;;;28.64;47.93;95376.86;106317;1286;24248;-85
2023/09/21 12:21:00;;;;;;;5.70;2.00;;;;;;;28.58;47.77;95377.76;106404;1280;22669;-85
2023/09/21 12:23:31;;;;;;;3.50;2.00;;;;;;;28.47;48.07;95375.56;106837;1275;24079;-83
2023/09/21 12:25:59;;;;;;;3.00;1.90;;;;;;;28.25;48.73;95370.48;106811;1275;24541;-78
2023/09/21 12:28:28;;;;;;;6.40;2.10;;;;;;;27.92;49.70;95371.27;106739;1275;24217;-81
2023/09/21 12:30:57;;;;;;;5.50;2.10;;;;;;;27.46;51.11;95369.45;106733;1272;24252;-83
2023/09/21 12:33:29;;;;;;;3.70;2.20;;;;;;;26.96;53.25;95371.56;106818;1272;24995;-79
2023/09/21 12:36:16;;;;;;;4.50;2.30;;;;;;;26.45;54.77;95376.07;107162;1272;23915;-84
2023/09/21 12:39:08;;;;;;;5.00;2.20;;;;;;;25.88;56.24;95376.64;107195;1272;22552;-84
2023/09/21 12:41:41;;;;;;;7.40;2.20;;;;;;;25.55;57.52;95372.55;107245;1272;22527;-83
2023/09/21 12:44:13;;;;;;;3.90;2.20;;;;;;;25.21;59.00;95370.83;106888;1272;24288;-80
2023/09/21 12:46:41;;;;;;;4.70;2.20;;;;;;;24.91;59.01;95367.58;106928;1271;25281;-82
2023/09/21 12:49:10;;;;;;;5.10;2.80;;;;;;;24.76;58.93;95368.25;106797;1271;25389;-82
2023/09/21 12:51:39;;;;;;;5.80;3.10;;;;;;;24.60;58.72;95365.35;106949;1271;22984;-81
2023/09/21 12:54:14;;;;;;;4.50;2.70;;;;;;;24.45;59.43;95370.11;107050;1271;22916;-82
2023/09/21 12:56:43;;;;;;;7.00;2.60;;;;;;;24.34;58.69;95362.25;106920;1271;25338;-81
2023/09/21 12:59:16;;;;;;;6.10;3.00;;;;;;;24.25;59.78;95364.95;106905;1271;22633;-84
2023/09/21 13:01:47;;;;;;;8.40;2.90;;;;;;;24.16;59.59;95362.70;107017;1271;22526;-85
2023/09/21 13:04:16;;;;;;;10.30;3.60;;;;;;;24.13;60.07;95357.38;106952;1271;22774;-80
2023/09/21 13:06:44;;;;;;;5.60;3.00;;;;;;;24.13;61.37;95356.67;106942;1271;24312;-84
2023/09/21 13:09:22;;;;;;;7.60;2.70;;;;;;;24.15;60.98;95352.59;106859;1271;22510;-84
2023/09/21 13:11:54;;;;;;;11.50;3.30;;;;;;;24.18;62.68;95355.77;106924;1266;24231;-84
2023/09/21 13:14:23;;;;;;;5.10;3.20;;;;;;;24.13;62.63;95351.13;107073;1271;24202;-83
2023/09/21 13:16:56;;;;;;;6.00;3.00;;;;;;;24.01;64.33;95351.48;107186;1260;22771;-85
2023/09/21 13:19:24;;;;;;;6.00;4.10;;;;;;;23.96;64.32;95348.05;106944;1271;24298;-84
2023/09/21 13:21:55;;;;;;;9.70;4.20;;;;;;;23.87;65.31;95345.02;106943;1271;22520;-85
2023/09/21 13:24:27;;;;;;;6.40;4.20;;;;;;;23.74;65.80;95345.96;107055;1271;22528;-84
2023/09/21 13:27:02;;;;;;;8.20;5.20;;;;;;;23.53;65.15;95352.16;106922;1272;26577;-76
2023/09/21 13:29:31;;;;;;;7.90;4.70;;;;;;;23.33;67.65;95351.13;106997;1272;22523;-84
2023/09/21 13:32:02;;;;;;;6.20;4.20;;;;;;;23.24;67.45;95349.04;107184;1272;23135;-78
2023/09/21 13:34:33;;;;;;;8.70;4.70;;;;;;;23.13;61.80;95339.27;106839;1272;24057;-82
2023/09/21 13:37:05;;;;;;;16.70;10.00;;;;;;;23.07;62.24;95341.35;106968;1272;22730;-83
2023/09/21 13:39:42;;;;;;;16.20;8.00;;;;;;;23.07;65.60;95343.13;106899;1263;22638;-78
2023/09/21 13:42:14;;;;;;;14.90;7.90;;;;;;;23.05;65.74;95338.75;106774;1272;24389;-83
2023/09/21 13:44:50;;;;;;;21.20;10.60;;;;;;;22.99;65.88;95336.15;107033;1272;25408;-79
2023/09/21 13:47:22;;;;;;;15.60;8.30;;;;;;;22.93;64.84;95333.72;107012;1272;25477;-80
2023/09/21 13:49:53;;;;;;;15.00;8.50;;;;;;;22.86;64.84;95339.55;106935;1272;25699;-82
2023/09/21 13:52:31;;;;;;;13.90;7.80;;;;;;;22.81;64.16;95337.58;107054;1272;25404;-83
2023/09/21 13:55:06;;;;;;;10.40;6.90;;;;;;;22.72;64.27;95338.77;107174;1272;22523;-78
2023/09/21 13:57:44;;;;;;;14.30;8.30;;;;;;;22.57;64.91;95332.30;107054;1272;25382;-77
2023/09/21 14:00:14;;;;;;;15.10;8.70;;;;;;;22.50;65.42;95325.80;106877;1272;25357;-80
2023/09/21 14:02:48;;;;;;;10.60;5.90;;;;;;;22.44;64.68;95323.71;106909;1272;22632;-80
2023/09/21 14:05:23;;;;;;;11.20;5.70;;;;;;;22.37;64.63;95321.67;107127;1272;22513;-78
2023/09/21 14:07:55;;;;;;;7.30;4.50;;;;;;;22.33;63.49;95321.82;107131;1271;22514;-85
2023/09/21 14:10:24;;;;;;;6.10;4.00;;;;;;;22.26;62.63;95324.41;106877;1272;22653;-82
2023/09/21 14:12:58;;;;;;;7.70;4.20;;;;;;;22.21;61.96;95329.59;106898;1272;25597;-85
2023/09/21 14:15:35;;;;;;;6.70;4.10;;;;;;;22.19;61.83;95334.17;106948;1273;22761;-82
2023/09/21 14:18:03;;;;;;;15.70;4.70;;;;;;;22.18;62.38;95334.02;106836;1273;22526;-84
2023/09/21 14:20:38;;;;;;;8.90;3.90;;;;;;;22.17;62.79;95332.00;106812;1273;25481;-82
2023/09/21 14:23:10;;;;;;;8.20;4.40;;;;;;;22.10;62.37;95336.06;106761;1273;25447;-79
2023/09/21 14:25:41;;;;;;;10.60;4.10;;;;;;;22.04;62.99;95339.52;106925;1273;23045;-78
2023/09/21 14:28:18;;;;;;;8.50;3.90;;;;;;;22.01;62.73;95337.38;107091;1273;22695;-83
2023/09/21 14:30:52;;;;;;;7.30;3.90;;;;;;;21.93;62.52;95336.34;106872;1266;22781;-82
2023/09/21 14:33:29;;;;;;;7.90;4.10;;;;;;;21.84;62.82;95330.84;106914;1272;22566;-84
2023/09/21 14:36:39;;;;;;;7.30;3.80;;;;;;;21.76;63.86;95328.52;106940;1273;25607;-81
2023/09/21 14:39:33;;;;;;;6.30;4.10;;;;;;;21.66;65.44;95323.77;106732;1274;22567;-85
2023/09/21 14:42:07;;;;;;;9.60;4.20;;;;;;;21.57;65.07;95322.98;106989;1274;24247;-85
2023/09/21 14:44:55;;;;;;;9.80;4.20;;;;;;;21.49;65.94;95323.34;106845;1274;24191;-80
2023/09/21 14:47:26;;;;;;;11.50;5.30;;;;;;;21.38;68.01;95327.60;106928;1274;24864;-80
2023/09/21 14:50:09;;;;;;;11.60;4.40;;;;;;;21.25;68.14;95326.15;106832;1274;25284;-82
2023/09/21 14:52:47;;;;;;;7.40;4.00;;;;;;;21.14;69.49;95322.88;106716;1274;22514;-80
2023/09/21 14:55:19;;;;;;;12.30;5.00;;;;;;;21.10;68.93;95322.77;106759;1274;22519;-85
2023/09/21 14:58:00;;;;;;;9.70;3.80;;;;;;;21.09;70.06;95321.73;106775;1274;22523;-85
2023/09/21 15:00:44;;;;;;;8.00;4.20;;;;;;;21.06;69.84;95318.55;106802;1274;24052;-82
2023/09/21 15:03:24;;;;;;;11.20;5.00;;;;;;;21.07;70.48;95320.86;106812;1274;22558;-82